sensor_id;sensor_type;location;lat;lon;timestamp;pressure;altitude;pressure_sealevel;temperature;humidity
48527;BME280;34317;51.660;5.824;2022-07-10T00:02:06;102671.56;;;18.54;50.02
48527;BME280;34317;51.660;5.824;2022-07-10T00:04:33;102666.22;;;18.54;49.97
48527;BME280;34317;51.660;5.824;2022-07-10T00:07:00;102670.59;;;18.55;50.32
48527;BME280;34317;51.660;5.824;2022-07-10T00:09:29;102678.53;;;18.58;50.18
48527;BME280;34317;51.660;5.824;2022-07-10T00:11:56;102669.50;;;18.59;50.09
48527;BME280;34317;51.660;5.824;2022-07-10T00:14:23;102668.66;;;18.58;49.91
48527;BME280;34317;51.660;5.824;2022-07-10T00:16:51;102668.66;;;18.58;50.06
48527;BME280;34317;51.660;5.824;2022-07-10T00:19:18;102656.09;;;18.59;50.14
48527;BME280;34317;51.660;5.824;2022-07-10T00:21:45;102650.66;;;18.60;50.24
48527;BME280;34317;51.660;5.824;2022-07-10T00:24:12;102656.72;;;18.64;50.24
48527;BME280;34317;51.660;5.824;2022-07-10T00:26:39;102660.22;;;18.66;50.15
48527;BME280;34317;51.660;5.824;2022-07-10T00:29:06;102670.94;;;18.66;50.29
48527;BME280;34317;51.660;5.824;2022-07-10T00:31:35;102667.31;;;18.67;50.15
48527;BME280;34317;51.660;5.824;2022-07-10T00:34:02;102668.13;;;18.69;50.16
48527;BME280;34317;51.660;5.824;2022-07-10T00:36:30;102671.59;;;18.71;50.11
48527;BME280;34317;51.660;5.824;2022-07-10T00:38:57;102662.75;;;18.69;50.04
48527;BME280;34317;51.660;5.824;2022-07-10T00:41:24;102660.06;;;18.69;50.39
48527;BME280;34317;51.660;5.824;2022-07-10T00:46:19;102654.84;;;18.66;50.34
48527;BME280;34317;51.660;5.824;2022-07-10T00:48:49;102660.22;;;18.66;50.69
48527;BME280;34317;51.660;5.824;2022-07-10T00:51:19;102656.59;;;18.67;50.39
48527;BME280;34317;51.660;5.824;2022-07-10T00:53:50;102651.22;;;18.67;50.17
48527;BME280;34317;51.660;5.824;2022-07-10T00:56:21;102642.38;;;18.65;50.21
48527;BME280;34317;51.660;5.824;2022-07-10T00:58:49;102635.25;;;18.64;50.34
48527;BME280;34317;51.660;5.824;2022-07-10T01:01:17;102630.03;;;18.61;50.36
48527;BME280;34317;51.660;5.824;2022-07-10T01:03:46;102635.50;;;18.59;50.31
48527;BME280;34317;51.660;5.824;2022-07-10T01:06:14;102626.66;;;18.57;50.25
48527;BME280;34317;51.660;5.824;2022-07-10T01:08:42;102625.84;;;18.55;50.29
48527;BME280;34317;51.660;5.824;2022-07-10T01:11:10;102617.91;;;18.54;50.48
48527;BME280;34317;51.660;5.824;2022-07-10T01:13:38;102617.13;;;18.52;50.39
48527;BME280;34317;51.660;5.824;2022-07-10T01:16:06;102621.66;;;18.49;50.50
48527;BME280;34317;51.660;5.824;2022-07-10T01:18:33;102619.16;;;18.46;50.32
48527;BME280;34317;51.660;5.824;2022-07-10T01:21:00;102614.88;;;18.42;50.47
48527;BME280;34317;51.660;5.824;2022-07-10T01:23:27;102619.53;;;18.39;50.56
48527;BME280;34317;51.660;5.824;2022-07-10T01:25:55;102614.31;;;18.36;50.49
48527;BME280;34317;51.660;5.824;2022-07-10T01:28:22;102626.22;;;18.30;50.51
48527;BME280;34317;51.660;5.824;2022-07-10T01:30:49;102620.97;;;18.27;50.60
48527;BME280;34317;51.660;5.824;2022-07-10T01:33:16;102621.28;;;18.21;50.70
48527;BME280;34317;51.660;5.824;2022-07-10T01:35:44;102616.16;;;18.16;50.84
48527;BME280;34317;51.660;5.824;2022-07-10T01:38:11;102610.16;;;18.11;50.79
48527;BME280;34317;51.660;5.824;2022-07-10T01:40:38;102613.88;;;18.08;50.94
48527;BME280;34317;51.660;5.824;2022-07-10T01:43:05;102614.78;;;18.07;51.00
48527;BME280;34317;51.660;5.824;2022-07-10T01:45:32;102614.00;;;18.05;51.39
48527;BME280;34317;51.660;5.824;2022-07-10T01:48:00;102612.34;;;18.03;51.15
48527;BME280;34317;51.660;5.824;2022-07-10T01:50:27;102614.25;;;18.01;51.05
48527;BME280;34317;51.660;5.824;2022-07-10T01:52:54;102609.88;;;17.98;51.22
48527;BME280;34317;51.660;5.824;2022-07-10T01:55:21;102617.13;;;17.96;51.39
48527;BME280;34317;51.660;5.824;2022-07-10T01:57:48;102610.03;;;17.95;51.22
48527;BME280;34317;51.660;5.824;2022-07-10T02:00:16;102606.53;;;17.93;51.56
48527;BME280;34317;51.660;5.824;2022-07-10T02:02:44;102599.44;;;17.92;51.53
48527;BME280;34317;51.660;5.824;2022-07-10T02:05:31;102612.00;;;17.92;51.49
48527;BME280;34317;51.660;5.824;2022-07-10T02:07:59;102613.78;;;17.91;51.42
48527;BME280;34317;51.660;5.824;2022-07-10T02:10:26;102606.69;;;17.90;51.55
48527;BME280;34317;51.660;5.824;2022-07-10T02:12:53;102607.63;;;17.89;51.63
48527;BME280;34317;51.660;5.824;2022-07-10T02:15:20;102601.34;;;17.90;51.75
48527;BME280;34317;51.660;5.824;2022-07-10T02:17:47;102603.06;;;17.91;51.44
48527;BME280;34317;51.660;5.824;2022-07-10T02:20:15;102603.06;;;17.91;51.58
48527;BME280;34317;51.660;5.824;2022-07-10T02:22:42;102599.44;;;17.92;51.53
48527;BME280;34317;51.660;5.824;2022-07-10T02:25:09;102603.06;;;17.91;51.59
48527;BME280;34317;51.660;5.824;2022-07-10T02:27:36;102603.94;;;17.92;51.69
48527;BME280;34317;51.660;5.824;2022-07-10T02:30:04;102603.06;;;17.91;51.68
48527;BME280;34317;51.660;5.824;2022-07-10T02:32:32;102596.91;;;17.89;51.47
48527;BME280;34317;51.660;5.824;2022-07-10T02:34:59;102599.75;;;17.86;51.67
48527;BME280;34317;51.660;5.824;2022-07-10T02:37:26;102594.50;;;17.83;51.77
48527;BME280;34317;51.660;5.824;2022-07-10T02:39:53;102596.38;;;17.81;51.58
48527;BME280;34317;51.660;5.824;2022-07-10T02:42:20;102598.28;;;17.79;51.71
48527;BME280;34317;51.660;5.824;2022-07-10T02:44:47;102600.16;;;17.77;51.78
48527;BME280;34317;51.660;5.824;2022-07-10T02:47:14;102593.03;;;17.76;51.69
48527;BME280;34317;51.660;5.824;2022-07-10T02:49:41;102598.41;;;17.76;51.95
48527;BME280;34317;51.660;5.824;2022-07-10T02:52:10;102594.94;;;17.74;51.99
48527;BME280;34317;51.660;5.824;2022-07-10T02:54:37;102597.59;;;17.74;51.95
48527;BME280;34317;51.660;5.824;2022-07-10T02:57:04;102595.00;;;17.72;52.05
48527;BME280;34317;51.660;5.824;2022-07-10T02:59:32;102600.41;;;17.70;52.15
48527;BME280;34317;51.660;5.824;2022-07-10T03:01:59;102594.13;;;17.71;52.23
48527;BME280;34317;51.660;5.824;2022-07-10T03:04:27;102592.31;;;17.72;52.38
48527;BME280;34317;51.660;5.824;2022-07-10T03:06:55;102588.72;;;17.73;52.35
48527;BME280;34317;51.660;5.824;2022-07-10T03:09:22;102593.03;;;17.76;52.43
48527;BME280;34317;51.660;5.824;2022-07-10T03:11:49;102592.13;;;17.77;52.40
48527;BME280;34317;51.660;5.824;2022-07-10T03:14:16;102592.03;;;17.78;52.37
48527;BME280;34317;51.660;5.824;2022-07-10T03:16:44;102582.19;;;17.79;52.36
48527;BME280;34317;51.660;5.824;2022-07-10T03:19:11;102585.59;;;17.82;52.38
48527;BME280;34317;51.660;5.824;2022-07-10T03:21:39;102578.41;;;17.83;52.41
48527;BME280;34317;51.660;5.824;2022-07-10T03:24:06;102578.41;;;17.83;52.38
48527;BME280;34317;51.660;5.824;2022-07-10T03:26:33;102586.44;;;17.83;52.70
48527;BME280;34317;51.660;5.824;2022-07-10T03:29:00;102578.41;;;17.83;52.44
48527;BME280;34317;51.660;5.824;2022-07-10T03:31:27;102577.63;;;17.81;52.44
48527;BME280;34317;51.660;5.824;2022-07-10T03:33:55;102577.69;;;17.79;52.53
48527;BME280;34317;51.660;5.824;2022-07-10T03:36:22;102583.91;;;17.80;52.59
48527;BME280;34317;51.660;5.824;2022-07-10T03:38:49;102573.19;;;17.80;52.53
48527;BME280;34317;51.660;5.824;2022-07-10T03:41:16;102566.91;;;17.81;52.70
48527;BME280;34317;51.660;5.824;2022-07-10T03:43:43;102562.47;;;17.80;52.57
48527;BME280;34317;51.660;5.824;2022-07-10T03:46:10;102567.81;;;17.80;52.64
48527;BME280;34317;51.660;5.824;2022-07-10T03:48:38;102582.19;;;17.79;52.64
48527;BME280;34317;51.660;5.824;2022-07-10T03:51:06;102582.19;;;17.79;52.59
48527;BME280;34317;51.660;5.824;2022-07-10T03:53:33;102580.44;;;17.78;52.71
48527;BME280;34317;51.660;5.824;2022-07-10T03:56:00;102572.41;;;17.78;52.73
48527;BME280;34317;51.660;5.824;2022-07-10T03:58:27;102576.81;;;17.79;52.78
48527;BME280;34317;51.660;5.824;2022-07-10T04:00:54;102578.53;;;17.80;52.84
48527;BME280;34317;51.660;5.824;2022-07-10T04:03:21;102574.94;;;17.81;53.07
48527;BME280;34317;51.660;5.824;2022-07-10T04:05:49;102573.19;;;17.80;52.73
48527;BME280;34317;51.660;5.824;2022-07-10T04:08:16;102576.81;;;17.79;52.86
48527;BME280;34317;51.660;5.824;2022-07-10T04:10:43;102568.00;;;17.77;53.02
48527;BME280;34317;51.660;5.824;2022-07-10T04:13:10;102559.00;;;17.78;53.10
48527;BME280;34317;51.660;5.824;2022-07-10T04:15:37;102574.06;;;17.80;53.07
48527;BME280;34317;51.660;5.824;2022-07-10T04:18:04;102572.25;;;17.81;53.16
48527;BME280;34317;51.660;5.824;2022-07-10T04:20:32;102566.03;;;17.80;53.06
48527;BME280;34317;51.660;5.824;2022-07-10T04:22:59;102565.06;;;17.81;53.32
48527;BME280;34317;51.660;5.824;2022-07-10T04:25:26;102564.09;;;17.84;53.13
48527;BME280;34317;51.660;5.824;2022-07-10T04:27:53;102565.84;;;17.85;53.30
48527;BME280;34317;51.660;5.824;2022-07-10T04:30:20;102563.09;;;17.86;53.31
48527;BME280;34317;51.660;5.824;2022-07-10T04:32:48;102563.94;;;17.87;53.27
48527;BME280;34317;51.660;5.824;2022-07-10T04:35:15;102569.16;;;17.90;53.32
48527;BME280;34317;51.660;5.824;2022-07-10T04:37:42;102570.88;;;17.91;53.48
48527;BME280;34317;51.660;5.824;2022-07-10T04:40:10;102570.88;;;17.91;53.46
48527;BME280;34317;51.660;5.824;2022-07-10T04:42:37;102578.00;;;17.92;53.40
48527;BME280;34317;51.660;5.824;2022-07-10T04:45:05;102574.22;;;17.96;53.65
48527;BME280;34317;51.660;5.824;2022-07-10T04:47:32;102579.44;;;17.99;53.48
48527;BME280;34317;51.660;5.824;2022-07-10T04:50:00;102578.41;;;18.02;53.60
48527;BME280;34317;51.660;5.824;2022-07-10T04:52:28;102580.19;;;18.03;53.48
48527;BME280;34317;51.660;5.824;2022-07-10T04:54:55;102577.31;;;18.06;53.56
48527;BME280;34317;51.660;5.824;2022-07-10T04:57:22;102569.22;;;18.07;53.59
48527;BME280;34317;51.660;5.824;2022-07-10T04:59:49;102575.38;;;18.09;53.63
48527;BME280;34317;51.660;5.824;2022-07-10T05:02:17;102577.13;;;18.11;53.72
48527;BME280;34317;51.660;5.824;2022-07-10T05:04:44;102578.69;;;18.15;53.69
48527;BME280;34317;51.660;5.824;2022-07-10T05:07:11;102585.63;;;18.19;53.72
48527;BME280;34317;51.660;5.824;2022-07-10T05:09:38;102581.84;;;18.23;53.75
48527;BME280;34317;51.660;5.824;2022-07-10T05:12:06;102579.97;;;18.25;53.68
48527;BME280;34317;51.660;5.824;2022-07-10T05:14:33;102576.34;;;18.26;53.60
48527;BME280;34317;51.660;5.824;2022-07-10T05:17:00;102571.00;;;18.26;53.60
48527;BME280;34317;51.660;5.824;2022-07-10T05:19:27;102577.06;;;18.29;53.67
48527;BME280;34317;51.660;5.824;2022-07-10T05:21:55;102581.41;;;18.32;53.88
48527;BME280;34317;51.660;5.824;2022-07-10T05:24:22;102582.97;;;18.36;53.72
48527;BME280;34317;51.660;5.824;2022-07-10T05:26:49;102586.44;;;18.38;53.87
48527;BME280;34317;51.660;5.824;2022-07-10T05:29:16;102582.69;;;18.42;53.72
48527;BME280;34317;51.660;5.824;2022-07-10T05:31:43;102582.44;;;18.47;53.58
48527;BME280;34317;51.660;5.824;2022-07-10T05:34:11;102580.47;;;18.51;53.71
48527;BME280;34317;51.660;5.824;2022-07-10T05:36:38;102582.06;;;18.55;53.65
48527;BME280;34317;51.660;5.824;2022-07-10T05:39:06;102588.22;;;18.57;53.66
48527;BME280;34317;51.660;5.824;2022-07-10T05:41:33;102590.75;;;18.60;53.65
48527;BME280;34317;51.660;5.824;2022-07-10T05:44:00;102579.88;;;18.63;53.64
48527;BME280;34317;51.660;5.824;2022-07-10T05:46:29;102578.69;;;18.68;53.73
48527;BME280;34317;51.660;5.824;2022-07-10T05:48:57;102567.63;;;18.75;53.68
48527;BME280;34317;51.660;5.824;2022-07-10T05:51:24;102578.91;;;18.81;53.69
48527;BME280;34317;51.660;5.824;2022-07-10T05:54:08;102575.94;;;18.88;53.45
48527;BME280;34317;51.660;5.824;2022-07-10T05:56:35;102581.91;;;18.93;53.36
48527;BME280;34317;51.660;5.824;2022-07-10T05:59:02;102579.84;;;18.98;53.42
48527;BME280;34317;51.660;5.824;2022-07-10T06:01:29;102584.03;;;19.03;53.47
48527;BME280;34317;51.660;5.824;2022-07-10T06:03:58;102567.59;;;19.10;53.52
48527;BME280;34317;51.660;5.824;2022-07-10T06:06:25;102569.88;;;19.17;53.34
48527;BME280;34317;51.660;5.824;2022-07-10T06:08:54;102580.22;;;19.25;53.26
48527;BME280;34317;51.660;5.824;2022-07-10T06:11:22;102579.81;;;19.33;53.44
48527;BME280;34317;51.660;5.824;2022-07-10T06:13:49;102577.72;;;19.38;53.17
48527;BME280;34317;51.660;5.824;2022-07-10T06:16:17;102572.19;;;19.41;53.05
48527;BME280;34317;51.660;5.824;2022-07-10T06:18:44;102581.03;;;19.43;52.95
48527;BME280;34317;51.660;5.824;2022-07-10T06:21:12;102584.50;;;19.45;52.64
48527;BME280;34317;51.660;5.824;2022-07-10T06:23:39;102586.25;;;19.46;53.02
48527;BME280;34317;51.660;5.824;2022-07-10T06:26:06;102583.38;;;19.49;52.98
48527;BME280;34317;51.660;5.824;2022-07-10T06:28:34;102582.09;;;19.56;52.89
48527;BME280;34317;51.660;5.824;2022-07-10T06:31:03;102583.63;;;19.60;52.81
48527;BME280;34317;51.660;5.824;2022-07-10T06:33:31;102579.81;;;19.64;52.70
48527;BME280;34317;51.660;5.824;2022-07-10T06:35:59;102576.03;;;19.69;52.74
48527;BME280;34317;51.660;5.824;2022-07-10T06:38:26;102570.34;;;19.75;52.74
48527;BME280;34317;51.660;5.824;2022-07-10T06:40:53;102578.81;;;19.83;52.87
48527;BME280;34317;51.660;5.824;2022-07-10T06:43:20;102576.75;;;19.88;52.61
48527;BME280;34317;51.660;5.824;2022-07-10T06:45:48;102574.84;;;19.90;52.20
48527;BME280;34317;51.660;5.824;2022-07-10T06:48:15;102576.41;;;19.94;52.14
48527;BME280;34317;51.660;5.824;2022-07-10T06:50:43;102573.53;;;19.97;52.20
48527;BME280;34317;51.660;5.824;2022-07-10T06:53:10;102570.69;;;20.00;52.06
48527;BME280;34317;51.660;5.824;2022-07-10T06:55:38;102579.53;;;20.02;51.70
48527;BME280;34317;51.660;5.824;2022-07-10T06:58:05;102575.88;;;20.03;51.82
48527;BME280;34317;51.660;5.824;2022-07-10T07:00:32;102578.47;;;20.05;51.64
48527;BME280;34317;51.660;5.824;2022-07-10T07:02:59;102573.78;;;20.09;51.74
48527;BME280;34317;51.660;5.824;2022-07-10T07:05:27;102580.72;;;20.13;51.70
48527;BME280;34317;51.660;5.824;2022-07-10T07:07:54;102582.28;;;20.17;51.81
48527;BME280;34317;51.660;5.824;2022-07-10T07:10:21;102575.75;;;20.21;51.87
48527;BME280;34317;51.660;5.824;2022-07-10T07:12:48;102578.28;;;20.24;51.50
48527;BME280;34317;51.660;5.824;2022-07-10T07:15:15;102580.81;;;20.27;51.44
48527;BME280;34317;51.660;5.824;2022-07-10T07:17:43;102581.56;;;20.29;51.66
48527;BME280;34317;51.660;5.824;2022-07-10T07:20:29;102585.03;;;20.31;51.63
48527;BME280;34317;51.660;5.824;2022-07-10T07:23:15;102586.75;;;20.32;51.50
48527;BME280;34317;51.660;5.824;2022-07-10T07:25:42;102583.13;;;20.33;51.31
48527;BME280;34317;51.660;5.824;2022-07-10T07:28:14;102587.56;;;20.34;51.45
48527;BME280;34317;51.660;5.824;2022-07-10T07:30:49;102588.34;;;20.36;51.40
48527;BME280;34317;51.660;5.824;2022-07-10T07:33:16;102588.13;;;20.39;51.46
48527;BME280;34317;51.660;5.824;2022-07-10T07:35:44;102588.81;;;20.43;51.43
48527;BME280;34317;51.660;5.824;2022-07-10T07:38:11;102589.50;;;20.47;51.31
48527;BME280;34317;51.660;5.824;2022-07-10T07:40:40;102591.25;;;20.48;51.13
48527;BME280;34317;51.660;5.824;2022-07-10T07:43:08;102587.59;;;20.49;51.22
48527;BME280;34317;51.660;5.824;2022-07-10T07:45:35;102592.81;;;20.52;51.26
48527;BME280;34317;51.660;5.824;2022-07-10T07:48:02;102594.53;;;20.53;51.25
48527;BME280;34317;51.660;5.824;2022-07-10T07:50:32;102600.13;;;20.50;51.22
48527;BME280;34317;51.660;5.824;2022-07-10T07:53:04;102591.25;;;20.48;51.42
48527;BME280;34317;51.660;5.824;2022-07-10T07:55:32;102591.25;;;20.48;51.42
48527;BME280;34317;51.660;5.824;2022-07-10T07:58:01;102585.88;;;20.48;51.30
48527;BME280;34317;51.660;5.824;2022-07-10T08:00:30;102591.25;;;20.48;51.09
48527;BME280;34317;51.660;5.824;2022-07-10T08:02:58;102594.72;;;20.50;51.26
48527;BME280;34317;51.660;5.824;2022-07-10T08:05:26;102590.22;;;20.50;51.16
48527;BME280;34317;51.660;5.824;2022-07-10T08:07:56;102589.25;;;20.51;51.11
48527;BME280;34317;51.660;5.824;2022-07-10T08:10:25;102591.06;;;20.51;50.89
48527;BME280;34317;51.660;5.824;2022-07-10T08:12:55;102585.69;;;20.51;50.89
48527;BME280;34317;51.660;5.824;2022-07-10T08:15:23;102588.38;;;20.51;51.06
48527;BME280;34317;51.660;5.824;2022-07-10T08:17:53;102588.19;;;20.54;51.04
48527;BME280;34317;51.660;5.824;2022-07-10T08:20:22;102592.59;;;20.55;50.79
48527;BME280;34317;51.660;5.824;2022-07-10T08:22:49;102578.22;;;20.56;50.98
48527;BME280;34317;51.660;5.824;2022-07-10T08:25:26;102583.41;;;20.59;51.01
48527;BME280;34317;51.660;5.824;2022-07-10T08:27:54;102586.91;;;20.61;51.09
48527;BME280;34317;51.660;5.824;2022-07-10T08:30:21;102586.72;;;20.64;51.01
48527;BME280;34317;51.660;5.824;2022-07-10T08:32:48;102592.09;;;20.64;51.00
48527;BME280;34317;51.660;5.824;2022-07-10T08:35:16;102593.84;;;20.65;50.84
48527;BME280;34317;51.660;5.824;2022-07-10T08:37:44;102593.84;;;20.65;50.90
48527;BME280;34317;51.660;5.824;2022-07-10T08:40:15;102586.53;;;20.67;51.28
48527;BME280;34317;51.660;5.824;2022-07-10T08:42:43;102588.09;;;20.71;51.03
48527;BME280;34317;51.660;5.824;2022-07-10T08:45:12;102583.38;;;20.75;51.17
48527;BME280;34317;51.660;5.824;2022-07-10T08:47:40;102585.00;;;20.77;50.78
48527;BME280;34317;51.660;5.824;2022-07-10T08:50:21;102587.53;;;20.80;51.09
48527;BME280;34317;51.660;5.824;2022-07-10T08:52:55;102587.34;;;20.84;51.07
48527;BME280;34317;51.660;5.824;2022-07-10T08:55:26;102583.50;;;20.88;50.89
48527;BME280;34317;51.660;5.824;2022-07-10T08:57:54;102588.72;;;20.91;51.00
48527;BME280;34317;51.660;5.824;2022-07-10T09:00:23;102583.13;;;20.94;50.85
48527;BME280;34317;51.660;5.824;2022-07-10T09:02:53;102582.94;;;20.97;51.00
48527;BME280;34317;51.660;5.824;2022-07-10T09:05:20;102589.88;;;21.01;51.09
48527;BME280;34317;51.660;5.824;2022-07-10T09:07:47;102587.78;;;21.06;50.96
48527;BME280;34317;51.660;5.824;2022-07-10T09:10:15;102580.47;;;21.08;50.99
48527;BME280;34317;51.660;5.824;2022-07-10T09:15:21;102572.56;;;21.19;51.26
48527;BME280;34317;51.660;5.824;2022-07-10T09:18:01;102573.72;;;21.30;51.27
48527;BME280;34317;51.660;5.824;2022-07-10T09:20:32;102570.34;;;21.41;51.08
48527;BME280;34317;51.660;5.824;2022-07-10T09:23:20;102583.19;;;21.51;51.00
48527;BME280;34317;51.660;5.824;2022-07-10T09:25:48;102578.06;;;21.61;50.76
48527;BME280;34317;51.660;5.824;2022-07-10T09:28:18;102569.47;;;21.69;50.65
48527;BME280;34317;51.660;5.824;2022-07-10T09:30:46;102562.72;;;21.76;50.42
48527;BME280;34317;51.660;5.824;2022-07-10T09:33:27;102555.97;;;21.83;50.53
48527;BME280;34317;51.660;5.824;2022-07-10T09:36:05;102555.34;;;21.92;50.39
48527;BME280;34317;51.660;5.824;2022-07-10T09:43:55;102544.22;;;22.24;50.23
48527;BME280;34317;51.660;5.824;2022-07-10T09:46:31;102535.91;;;22.42;50.20
48527;BME280;34317;51.660;5.824;2022-07-10T09:51:33;102533.56;;;22.76;49.87
48527;BME280;34317;51.660;5.824;2022-07-10T09:54:02;102541.56;;;22.90;49.92
48527;BME280;34317;51.660;5.824;2022-07-10T09:56:49;102536.72;;;23.08;49.74
48527;BME280;34317;51.660;5.824;2022-07-10T09:59:21;102529.13;;;23.26;49.29
48527;BME280;34317;51.660;5.824;2022-07-10T10:01:52;102531.16;;;23.35;48.74
48527;BME280;34317;51.660;5.824;2022-07-10T10:04:21;102542.63;;;23.39;48.47
48527;BME280;34317;51.660;5.824;2022-07-10T10:06:54;102545.00;;;23.43;48.25
48527;BME280;34317;51.660;5.824;2022-07-10T10:09:25;102546.50;;;23.47;47.94
48527;BME280;34317;51.660;5.824;2022-07-10T10:11:59;102547.25;;;23.49;47.84
48527;BME280;34317;51.660;5.824;2022-07-10T10:14:31;102545.28;;;23.51;47.64
48527;BME280;34317;51.660;5.824;2022-07-10T10:17:01;102542.59;;;23.51;47.50
48527;BME280;34317;51.660;5.824;2022-07-10T10:19:30;102546.25;;;23.50;47.42
48527;BME280;34317;51.660;5.824;2022-07-10T10:22:18;102543.69;;;23.49;47.35
48527;BME280;34317;51.660;5.824;2022-07-10T10:24:46;102544.56;;;23.49;47.29
48527;BME280;34317;51.660;5.824;2022-07-10T10:27:14;102535.69;;;23.47;47.03
48527;BME280;34317;51.660;5.824;2022-07-10T10:29:42;102538.72;;;23.43;46.98
48527;BME280;34317;51.660;5.824;2022-07-10T10:32:10;102544.13;;;23.43;47.29
48527;BME280;34317;51.660;5.824;2022-07-10T10:34:55;102534.69;;;23.48;47.60
48527;BME280;34317;51.660;5.824;2022-07-10T10:37:36;102525.91;;;23.58;47.63
48527;BME280;34317;51.660;5.824;2022-07-10T10:40:05;102519.81;;;23.67;47.25
48527;BME280;34317;51.660;5.824;2022-07-10T10:42:40;102521.56;;;23.68;47.12
48527;BME280;34317;51.660;5.824;2022-07-10T10:48:00;102520.66;;;23.80;47.16
48527;BME280;34317;51.660;5.824;2022-07-10T10:50:51;102522.69;;;23.89;47.02
48527;BME280;34317;51.660;5.824;2022-07-10T10:53:23;102516.06;;;23.94;46.76
48527;BME280;34317;51.660;5.824;2022-07-10T11:06:44;102502.91;;;24.24;46.17
48527;BME280;34317;51.660;5.824;2022-07-10T11:09:26;102500.22;;;24.36;46.01
48527;BME280;34317;51.660;5.824;2022-07-10T11:12:07;102493.84;;;24.48;45.98
48527;BME280;34317;51.660;5.824;2022-07-10T11:14:39;102503.75;;;24.60;45.80
48527;BME280;34317;51.660;5.824;2022-07-10T11:17:07;102505.75;;;24.70;45.18
48527;BME280;34317;51.660;5.824;2022-07-10T11:19:36;102506.00;;;24.78;44.98
48527;BME280;34317;51.660;5.824;2022-07-10T11:22:31;102501.81;;;24.85;45.36
48527;BME280;34317;51.660;5.824;2022-07-10T11:25:31;102506.97;;;24.88;44.98
48527;BME280;34317;51.660;5.824;2022-07-10T11:28:09;102511.53;;;24.87;44.53
48527;BME280;34317;51.660;5.824;2022-07-10T11:33:14;102506.97;;;24.88;44.79
48527;BME280;34317;51.660;5.824;2022-07-10T11:35:45;102508.50;;;24.92;44.65
48527;BME280;34317;51.660;5.824;2022-07-10T11:38:19;102495.41;;;24.97;44.61
48527;BME280;34317;51.660;5.824;2022-07-10T11:40:46;102490.25;;;25.05;44.28
48527;BME280;34317;51.660;5.824;2022-07-10T11:43:13;102479.88;;;25.11;44.32
48527;BME280;34317;51.660;5.824;2022-07-10T11:45:44;102480.25;;;25.17;44.61
48527;BME280;34317;51.660;5.824;2022-07-10T11:48:19;102471.50;;;25.25;44.29
48527;BME280;34317;51.660;5.824;2022-07-10T11:50:47;102474.72;;;25.30;44.15
48527;BME280;34317;51.660;5.824;2022-07-10T11:53:25;102470.16;;;25.31;43.92
48527;BME280;34317;51.660;5.824;2022-07-10T11:55:52;102480.16;;;25.30;43.72
48527;BME280;34317;51.660;5.824;2022-07-10T11:58:23;102476.69;;;25.28;43.92
48527;BME280;34317;51.660;5.824;2022-07-10T12:01:02;102478.91;;;25.23;43.47
48527;BME280;34317;51.660;5.824;2022-07-10T12:03:32;102481.59;;;25.12;43.41
48527;BME280;34317;51.660;5.824;2022-07-10T12:06:06;102484.31;;;25.00;43.40
48527;BME280;34317;51.660;5.824;2022-07-10T12:08:46;102481.84;;;24.86;43.13
48527;BME280;34317;51.660;5.824;2022-07-10T12:11:16;102479.13;;;24.75;43.50
48527;BME280;34317;51.660;5.824;2022-07-10T12:13:46;102487.88;;;24.67;43.53
48527;BME280;34317;51.660;5.824;2022-07-10T12:16:14;102484.91;;;24.59;43.70
48527;BME280;34317;51.660;5.824;2022-07-10T12:18:42;102487.13;;;24.54;43.95
48527;BME280;34317;51.660;5.824;2022-07-10T12:21:12;102494.09;;;24.45;43.90
48527;BME280;34317;51.660;5.824;2022-07-10T12:23:41;102491.09;;;24.37;44.32
48527;BME280;34317;51.660;5.824;2022-07-10T12:26:10;102482.25;;;24.35;44.28
48527;BME280;34317;51.660;5.824;2022-07-10T12:28:54;102484.22;;;24.33;44.54
48527;BME280;34317;51.660;5.824;2022-07-10T12:31:23;102485.94;;;24.34;44.62
48527;BME280;34317;51.660;5.824;2022-07-10T12:33:55;102497.38;;;24.37;44.68
48527;BME280;34317;51.660;5.824;2022-07-10T12:36:25;102493.69;;;24.38;44.38
48527;BME280;34317;51.660;5.824;2022-07-10T12:38:54;102492.84;;;24.38;44.32
48527;BME280;34317;51.660;5.824;2022-07-10T12:41:27;102482.25;;;24.35;44.07
48527;BME280;34317;51.660;5.824;2022-07-10T12:43:55;102491.59;;;24.31;44.24
48527;BME280;34317;51.660;5.824;2022-07-10T12:46:23;102490.13;;;24.26;44.46
48527;BME280;34317;51.660;5.824;2022-07-10T12:49:09;102498.56;;;24.22;44.58
48527;BME280;34317;51.660;5.824;2022-07-10T12:51:46;102495.97;;;24.20;44.72
48527;BME280;34317;51.660;5.824;2022-07-10T12:54:38;102488.75;;;24.21;45.08
48527;BME280;34317;51.660;5.824;2022-07-10T12:57:06;102488.88;;;24.31;45.23
48527;BME280;34317;51.660;5.824;2022-07-10T12:59:37;102488.69;;;24.45;45.56
48527;BME280;34317;51.660;5.824;2022-07-10T13:02:19;102496.38;;;24.62;45.12
48527;BME280;34317;51.660;5.824;2022-07-10T13:04:56;102484.81;;;24.72;44.61
48527;BME280;34317;51.660;5.824;2022-07-10T13:07:31;102484.31;;;24.78;44.40
48527;BME280;34317;51.660;5.824;2022-07-10T13:10:07;102484.09;;;24.81;44.38
48527;BME280;34317;51.660;5.824;2022-07-10T13:12:35;102484.81;;;24.83;44.26
48527;BME280;34317;51.660;5.824;2022-07-10T13:15:03;102472.25;;;24.82;44.13
48527;BME280;34317;51.660;5.824;2022-07-10T13:17:30;102471.28;;;24.83;43.96
48527;BME280;34317;51.660;5.824;2022-07-10T13:19:57;102472.75;;;24.87;43.99
48527;BME280;34317;51.660;5.824;2022-07-10T13:22:25;102470.78;;;24.89;44.35
48527;BME280;34317;51.660;5.824;2022-07-10T13:24:52;102468.56;;;24.94;44.32
48527;BME280;34317;51.660;5.824;2022-07-10T13:27:19;102469.75;;;25.01;44.29
48527;BME280;34317;51.660;5.824;2022-07-10T13:29:47;102466.31;;;25.11;43.95
48527;BME280;34317;51.660;5.824;2022-07-10T13:32:15;102468.53;;;25.17;43.91